sensor_id;sensor_type;location;lat;lon;timestamp;P1;durP1;ratioP1;P2;durP2;ratioP2
76113;SDS011;64845;53.086;5.834;2023-07-29T00:01:48;7.22;;;3.13;;
76113;SDS011;64845;53.086;5.834;2023-07-29T00:04:14;7.60;;;3.10;;
76113;SDS011;64845;53.086;5.834;2023-07-29T00:06:40;6.55;;;3.20;;
76113;SDS011;64845;53.086;5.834;2023-07-29T00:09:05;6.47;;;3.00;;
76113;SDS011;64845;53.086;5.834;2023-07-29T00:11:31;8.63;;;3.35;;
76113;SDS011;64845;53.086;5.834;2023-07-29T00:13:59;8.52;;;3.22;;
76113;SDS011;64845;53.086;5.834;2023-07-29T00:16:27;10.07;;;3.15;;
76113;SDS011;64845;53.086;5.834;2023-07-29T00:18:53;6.70;;;3.42;;
76113;SDS011;64845;53.086;5.834;2023-07-29T00:21:18;9.38;;;4.10;;
76113;SDS011;64845;53.086;5.834;2023-07-29T00:23:44;12.90;;;3.42;;
76113;SDS011;64845;53.086;5.834;2023-07-29T00:26:10;8.52;;;4.07;;
76113;SDS011;64845;53.086;5.834;2023-07-29T00:28:35;7.20;;;3.75;;
76113;SDS011;64845;53.086;5.834;2023-07-29T00:31:01;8.88;;;3.90;;
76113;SDS011;64845;53.086;5.834;2023-07-29T00:33:27;10.70;;;4.10;;
76113;SDS011;64845;53.086;5.834;2023-07-29T00:35:52;8.88;;;4.00;;
76113;SDS011;64845;53.086;5.834;2023-07-29T00:38:18;9.75;;;3.92;;
76113;SDS011;64845;53.086;5.834;2023-07-29T00:40:43;6.75;;;3.70;;
76113;SDS011;64845;53.086;5.834;2023-07-29T00:43:08;11.40;;;4.43;;
76113;SDS011;64845;53.086;5.834;2023-07-29T00:45:34;9.75;;;4.22;;
76113;SDS011;64845;53.086;5.834;2023-07-29T00:48:00;6.95;;;4.05;;
76113;SDS011;64845;53.086;5.834;2023-07-29T00:50:26;6.50;;;4.60;;
76113;SDS011;64845;53.086;5.834;2023-07-29T00:52:53;6.95;;;4.28;;
76113;SDS011;64845;53.086;5.834;2023-07-29T00:55:19;9.35;;;4.60;;
76113;SDS011;64845;53.086;5.834;2023-07-29T00:57:44;6.95;;;4.32;;
76113;SDS011;64845;53.086;5.834;2023-07-29T01:00:13;12.38;;;4.85;;
76113;SDS011;64845;53.086;5.834;2023-07-29T01:02:39;11.70;;;4.65;;
76113;SDS011;64845;53.086;5.834;2023-07-29T01:05:04;11.18;;;4.93;;
76113;SDS011;64845;53.086;5.834;2023-07-29T01:07:48;8.13;;;4.90;;
76113;SDS011;64845;53.086;5.834;2023-07-29T01:16:01;7.78;;;3.67;;
76113;SDS011;64845;53.086;5.834;2023-07-29T01:18:35;7.93;;;3.42;;
76113;SDS011;64845;53.086;5.834;2023-07-29T01:21:03;12.23;;;3.60;;
76113;SDS011;64845;53.086;5.834;2023-07-29T01:23:33;7.13;;;3.70;;
76113;SDS011;64845;53.086;5.834;2023-07-29T01:25:59;8.90;;;3.70;;
76113;SDS011;64845;53.086;5.834;2023-07-29T01:28:25;9.10;;;3.85;;
76113;SDS011;64845;53.086;5.834;2023-07-29T01:30:52;7.28;;;3.40;;
76113;SDS011;64845;53.086;5.834;2023-07-29T01:33:42;9.20;;;2.97;;
76113;SDS011;64845;53.086;5.834;2023-07-29T01:36:16;6.63;;;3.10;;
76113;SDS011;64845;53.086;5.834;2023-07-29T01:38:47;8.23;;;3.22;;
76113;SDS011;64845;53.086;5.834;2023-07-29T01:41:13;6.95;;;3.40;;
76113;SDS011;64845;53.086;5.834;2023-07-29T01:43:39;8.80;;;3.33;;
76113;SDS011;64845;53.086;5.834;2023-07-29T01:46:12;6.72;;;3.10;;
76113;SDS011;64845;53.086;5.834;2023-07-29T01:48:40;6.53;;;3.17;;
76113;SDS011;64845;53.086;5.834;2023-07-29T01:51:06;7.05;;;4.68;;
76113;SDS011;64845;53.086;5.834;2023-07-29T01:53:32;8.32;;;5.32;;
76113;SDS011;64845;53.086;5.834;2023-07-29T01:55:57;14.00;;;5.10;;
76113;SDS011;64845;53.086;5.834;2023-07-29T01:58:23;8.63;;;4.60;;
76113;SDS011;64845;53.086;5.834;2023-07-29T02:00:49;9.55;;;5.00;;
76113;SDS011;64845;53.086;5.834;2023-07-29T02:03:14;9.13;;;4.50;;
76113;SDS011;64845;53.086;5.834;2023-07-29T02:05:40;6.53;;;4.40;;
76113;SDS011;64845;53.086;5.834;2023-07-29T02:08:06;6.55;;;4.32;;
76113;SDS011;64845;53.086;5.834;2023-07-29T02:10:32;11.57;;;4.47;;
76113;SDS011;64845;53.086;5.834;2023-07-29T02:12:57;7.47;;;4.07;;
76113;SDS011;64845;53.086;5.834;2023-07-29T02:15:22;13.52;;;3.97;;
76113;SDS011;64845;53.086;5.834;2023-07-29T02:17:49;7.32;;;3.97;;
76113;SDS011;64845;53.086;5.834;2023-07-29T02:20:15;5.97;;;3.65;;
76113;SDS011;64845;53.086;5.834;2023-07-29T02:22:41;10.23;;;3.97;;
76113;SDS011;64845;53.086;5.834;2023-07-29T02:25:06;15.82;;;3.92;;
76113;SDS011;64845;53.086;5.834;2023-07-29T02:27:32;11.20;;;3.40;;
76113;SDS011;64845;53.086;5.834;2023-07-29T02:29:58;8.73;;;3.97;;
76113;SDS011;64845;53.086;5.834;2023-07-29T02:32:23;7.43;;;3.00;;
76113;SDS011;64845;53.086;5.834;2023-07-29T02:34:49;9.70;;;2.90;;
76113;SDS011;64845;53.086;5.834;2023-07-29T02:37:14;12.63;;;2.78;;
76113;SDS011;64845;53.086;5.834;2023-07-29T02:39:39;13.98;;;3.03;;
76113;SDS011;64845;53.086;5.834;2023-07-29T02:42:05;6.85;;;2.72;;
76113;SDS011;64845;53.086;5.834;2023-07-29T02:44:30;7.25;;;2.65;;
76113;SDS011;64845;53.086;5.834;2023-07-29T02:46:56;5.97;;;2.47;;
76113;SDS011;64845;53.086;5.834;2023-07-29T02:49:21;11.82;;;2.95;;
76113;SDS011;64845;53.086;5.834;2023-07-29T02:51:48;8.57;;;2.65;;
76113;SDS011;64845;53.086;5.834;2023-07-29T02:54:14;6.63;;;2.53;;
76113;SDS011;64845;53.086;5.834;2023-07-29T02:56:39;7.53;;;2.47;;
76113;SDS011;64845;53.086;5.834;2023-07-29T02:59:04;6.72;;;2.08;;
76113;SDS011;64845;53.086;5.834;2023-07-29T03:01:30;10.30;;;2.65;;
76113;SDS011;64845;53.086;5.834;2023-07-29T03:03:55;9.82;;;2.75;;
76113;SDS011;64845;53.086;5.834;2023-07-29T03:06:21;6.13;;;2.38;;
76113;SDS011;64845;53.086;5.834;2023-07-29T03:08:46;12.82;;;2.40;;
76113;SDS011;64845;53.086;5.834;2023-07-29T03:11:12;8.80;;;2.30;;
76113;SDS011;64845;53.086;5.834;2023-07-29T03:13:39;13.32;;;2.35;;
76113;SDS011;64845;53.086;5.834;2023-07-29T03:16:08;6.85;;;2.20;;
76113;SDS011;64845;53.086;5.834;2023-07-29T03:18:38;8.43;;;2.53;;
76113;SDS011;64845;53.086;5.834;2023-07-29T03:21:04;7.60;;;2.42;;
76113;SDS011;64845;53.086;5.834;2023-07-29T03:23:30;8.98;;;2.30;;
76113;SDS011;64845;53.086;5.834;2023-07-29T03:25:57;10.77;;;2.10;;
76113;SDS011;64845;53.086;5.834;2023-07-29T03:28:26;7.38;;;2.42;;
76113;SDS011;64845;53.086;5.834;2023-07-29T03:30:54;11.57;;;2.20;;
76113;SDS011;64845;53.086;5.834;2023-07-29T03:33:20;12.70;;;2.30;;
76113;SDS011;64845;53.086;5.834;2023-07-29T03:35:45;10.07;;;2.50;;
76113;SDS011;64845;53.086;5.834;2023-07-29T03:38:11;6.85;;;2.47;;
76113;SDS011;64845;53.086;5.834;2023-07-29T03:40:37;9.57;;;2.17;;
76113;SDS011;64845;53.086;5.834;2023-07-29T03:43:03;7.07;;;2.15;;
76113;SDS011;64845;53.086;5.834;2023-07-29T03:45:29;10.57;;;2.30;;
76113;SDS011;64845;53.086;5.834;2023-07-29T03:47:54;10.00;;;2.40;;
76113;SDS011;64845;53.086;5.834;2023-07-29T03:50:20;6.68;;;2.25;;
76113;SDS011;64845;53.086;5.834;2023-07-29T03:52:45;7.93;;;2.63;;
76113;SDS011;64845;53.086;5.834;2023-07-29T03:55:11;15.32;;;2.58;;
76113;SDS011;64845;53.086;5.834;2023-07-29T03:57:36;5.85;;;1.95;;
76113;SDS011;64845;53.086;5.834;2023-07-29T04:00:02;8.27;;;2.40;;
76113;SDS011;64845;53.086;5.834;2023-07-29T04:02:28;8.05;;;2.38;;
76113;SDS011;64845;53.086;5.834;2023-07-29T04:04:53;9.73;;;2.30;;
76113;SDS011;64845;53.086;5.834;2023-07-29T04:07:19;6.90;;;2.17;;
76113;SDS011;64845;53.086;5.834;2023-07-29T04:09:44;8.27;;;2.33;;
76113;SDS011;64845;53.086;5.834;2023-07-29T04:12:10;9.40;;;2.28;;
76113;SDS011;64845;53.086;5.834;2023-07-29T04:14:35;7.35;;;2.70;;
76113;SDS011;64845;53.086;5.834;2023-07-29T04:17:00;11.63;;;2.67;;
76113;SDS011;64845;53.086;5.834;2023-07-29T04:19:26;12.98;;;2.45;;
76113;SDS011;64845;53.086;5.834;2023-07-29T04:21:51;6.72;;;2.53;;
76113;SDS011;64845;53.086;5.834;2023-07-29T04:24:17;7.45;;;2.33;;
76113;SDS011;64845;53.086;5.834;2023-07-29T04:26:42;8.23;;;3.00;;
76113;SDS011;64845;53.086;5.834;2023-07-29T04:29:08;10.55;;;2.75;;
76113;SDS011;64845;53.086;5.834;2023-07-29T04:31:34;6.43;;;2.58;;
76113;SDS011;64845;53.086;5.834;2023-07-29T04:33:59;6.65;;;2.33;;
76113;SDS011;64845;53.086;5.834;2023-07-29T04:36:24;8.80;;;2.95;;
76113;SDS011;64845;53.086;5.834;2023-07-29T04:38:50;10.65;;;2.88;;
76113;SDS011;64845;53.086;5.834;2023-07-29T04:41:15;14.23;;;2.85;;
76113;SDS011;64845;53.086;5.834;2023-07-29T04:43:40;8.38;;;2.92;;
76113;SDS011;64845;53.086;5.834;2023-07-29T04:46:06;7.40;;;2.63;;
76113;SDS011;64845;53.086;5.834;2023-07-29T04:48:33;9.52;;;2.78;;
76113;SDS011;64845;53.086;5.834;2023-07-29T04:50:59;12.23;;;2.97;;
76113;SDS011;64845;53.086;5.834;2023-07-29T04:53:24;8.90;;;2.75;;
76113;SDS011;64845;53.086;5.834;2023-07-29T04:55:50;14.15;;;3.25;;
76113;SDS011;64845;53.086;5.834;2023-07-29T04:58:15;10.05;;;2.72;;
76113;SDS011;64845;53.086;5.834;2023-07-29T05:00:41;10.45;;;2.95;;
76113;SDS011;64845;53.086;5.834;2023-07-29T05:03:06;11.45;;;2.60;;
76113;SDS011;64845;53.086;5.834;2023-07-29T05:05:32;9.20;;;2.92;;
76113;SDS011;64845;53.086;5.834;2023-07-29T05:07:57;9.23;;;2.85;;
76113;SDS011;64845;53.086;5.834;2023-07-29T05:10:22;8.23;;;2.80;;
76113;SDS011;64845;53.086;5.834;2023-07-29T05:12:48;8.25;;;2.58;;
76113;SDS011;64845;53.086;5.834;2023-07-29T05:15:14;11.50;;;3.08;;
76113;SDS011;64845;53.086;5.834;2023-07-29T05:17:40;12.88;;;3.50;;
76113;SDS011;64845;53.086;5.834;2023-07-29T05:20:05;11.98;;;3.15;;
76113;SDS011;64845;53.086;5.834;2023-07-29T05:22:31;6.55;;;2.83;;
76113;SDS011;64845;53.086;5.834;2023-07-29T05:24:57;9.88;;;3.10;;
76113;SDS011;64845;53.086;5.834;2023-07-29T05:27:22;9.18;;;3.80;;
76113;SDS011;64845;53.086;5.834;2023-07-29T05:29:47;17.38;;;3.53;;
76113;SDS011;64845;53.086;5.834;2023-07-29T05:32:13;14.38;;;3.50;;
76113;SDS011;64845;53.086;5.834;2023-07-29T05:34:38;15.85;;;3.40;;
76113;SDS011;64845;53.086;5.834;2023-07-29T05:37:03;9.77;;;3.00;;
76113;SDS011;64845;53.086;5.834;2023-07-29T05:39:29;10.13;;;3.47;;
76113;SDS011;64845;53.086;5.834;2023-07-29T05:41:55;12.55;;;3.00;;
76113;SDS011;64845;53.086;5.834;2023-07-29T05:44:21;13.40;;;3.47;;
76113;SDS011;64845;53.086;5.834;2023-07-29T05:46:46;20.25;;;3.38;;
76113;SDS011;64845;53.086;5.834;2023-07-29T05:49:12;11.90;;;3.30;;
76113;SDS011;64845;53.086;5.834;2023-07-29T05:51:38;10.70;;;3.55;;
76113;SDS011;64845;53.086;5.834;2023-07-29T05:54:03;15.18;;;3.58;;
76113;SDS011;64845;53.086;5.834;2023-07-29T05:56:29;10.85;;;3.33;;
76113;SDS011;64845;53.086;5.834;2023-07-29T05:58:56;10.40;;;3.42;;
76113;SDS011;64845;53.086;5.834;2023-07-29T06:01:22;11.55;;;3.25;;
76113;SDS011;64845;53.086;5.834;2023-07-29T06:03:47;11.55;;;3.63;;
76113;SDS011;64845;53.086;5.834;2023-07-29T06:06:12;8.07;;;3.22;;
76113;SDS011;64845;53.086;5.834;2023-07-29T06:08:38;13.27;;;2.88;;
76113;SDS011;64845;53.086;5.834;2023-07-29T06:11:03;18.10;;;3.22;;
76113;SDS011;64845;53.086;5.834;2023-07-29T06:13:31;13.00;;;3.88;;
76113;SDS011;64845;53.086;5.834;2023-07-29T06:15:57;9.77;;;3.33;;
76113;SDS011;64845;53.086;5.834;2023-07-29T06:18:22;12.55;;;3.45;;
76113;SDS011;64845;53.086;5.834;2023-07-29T06:20:48;13.38;;;3.10;;
76113;SDS011;64845;53.086;5.834;2023-07-29T06:23:13;13.45;;;3.42;;
76113;SDS011;64845;53.086;5.834;2023-07-29T06:25:38;11.55;;;3.15;;
76113;SDS011;64845;53.086;5.834;2023-07-29T06:28:04;17.42;;;3.25;;
76113;SDS011;64845;53.086;5.834;2023-07-29T06:30:29;9.85;;;3.63;;
76113;SDS011;64845;53.086;5.834;2023-07-29T06:32:55;14.13;;;3.40;;
76113;SDS011;64845;53.086;5.834;2023-07-29T06:35:20;9.25;;;3.17;;
76113;SDS011;64845;53.086;5.834;2023-07-29T06:37:46;16.65;;;3.85;;
76113;SDS011;64845;53.086;5.834;2023-07-29T06:40:12;14.70;;;3.95;;
76113;SDS011;64845;53.086;5.834;2023-07-29T06:42:37;12.35;;;3.17;;
76113;SDS011;64845;53.086;5.834;2023-07-29T06:45:03;10.27;;;3.67;;
76113;SDS011;64845;53.086;5.834;2023-07-29T06:47:32;7.78;;;3.00;;
76113;SDS011;64845;53.086;5.834;2023-07-29T06:49:57;14.98;;;3.83;;
76113;SDS011;64845;53.086;5.834;2023-07-29T06:52:23;15.02;;;3.55;;
76113;SDS011;64845;53.086;5.834;2023-07-29T06:54:48;14.10;;;3.42;;
76113;SDS011;64845;53.086;5.834;2023-07-29T06:57:13;16.60;;;3.95;;
76113;SDS011;64845;53.086;5.834;2023-07-29T06:59:39;17.27;;;3.78;;
76113;SDS011;64845;53.086;5.834;2023-07-29T07:02:05;13.02;;;3.60;;
76113;SDS011;64845;53.086;5.834;2023-07-29T07:04:31;11.43;;;3.50;;
76113;SDS011;64845;53.086;5.834;2023-07-29T07:06:57;14.35;;;3.50;;
76113;SDS011;64845;53.086;5.834;2023-07-29T07:09:22;13.18;;;3.40;;
76113;SDS011;64845;53.086;5.834;2023-07-29T07:11:47;11.57;;;3.13;;
76113;SDS011;64845;53.086;5.834;2023-07-29T07:14:13;16.58;;;3.50;;
76113;SDS011;64845;53.086;5.834;2023-07-29T07:16:38;12.23;;;3.67;;
76113;SDS011;64845;53.086;5.834;2023-07-29T07:19:04;10.10;;;3.10;;
76113;SDS011;64845;53.086;5.834;2023-07-29T07:21:30;11.05;;;2.95;;
76113;SDS011;64845;53.086;5.834;2023-07-29T07:23:55;11.35;;;3.00;;
76113;SDS011;64845;53.086;5.834;2023-07-29T07:26:20;9.00;;;3.10;;
76113;SDS011;64845;53.086;5.834;2023-07-29T07:28:46;11.20;;;2.95;;
76113;SDS011;64845;53.086;5.834;2023-07-29T07:31:11;12.68;;;3.28;;
76113;SDS011;64845;53.086;5.834;2023-07-29T07:33:37;6.60;;;2.40;;
76113;SDS011;64845;53.086;5.834;2023-07-29T07:36:02;8.35;;;2.67;;
76113;SDS011;64845;53.086;5.834;2023-07-29T07:38:27;8.68;;;2.70;;
76113;SDS011;64845;53.086;5.834;2023-07-29T07:40:56;9.18;;;2.70;;
76113;SDS011;64845;53.086;5.834;2023-07-29T07:43:22;11.15;;;2.40;;
76113;SDS011;64845;53.086;5.834;2023-07-29T07:45:49;10.30;;;2.60;;
76113;SDS011;64845;53.086;5.834;2023-07-29T07:48:14;12.88;;;2.90;;
76113;SDS011;64845;53.086;5.834;2023-07-29T07:50:41;13.20;;;2.80;;
76113;SDS011;64845;53.086;5.834;2023-07-29T07:53:07;12.07;;;3.38;;
76113;SDS011;64845;53.086;5.834;2023-07-29T07:55:32;10.80;;;2.47;;
76113;SDS011;64845;53.086;5.834;2023-07-29T07:57:58;10.18;;;2.60;;
76113;SDS011;64845;53.086;5.834;2023-07-29T08:00:23;8.23;;;2.40;;
76113;SDS011;64845;53.086;5.834;2023-07-29T08:02:48;7.28;;;2.38;;
76113;SDS011;64845;53.086;5.834;2023-07-29T08:05:14;11.75;;;2.60;;
76113;SDS011;64845;53.086;5.834;2023-07-29T08:07:39;7.57;;;2.30;;
76113;SDS011;64845;53.086;5.834;2023-07-29T08:10:05;10.23;;;2.30;;
76113;SDS011;64845;53.086;5.834;2023-07-29T08:12:31;5.75;;;2.22;;
76113;SDS011;64845;53.086;5.834;2023-07-29T08:14:57;5.43;;;2.20;;
76113;SDS011;64845;53.086;5.834;2023-07-29T08:17:23;8.40;;;2.42;;
76113;SDS011;64845;53.086;5.834;2023-07-29T08:19:48;9.40;;;2.40;;
76113;SDS011;64845;53.086;5.834;2023-07-29T08:22:14;10.05;;;2.03;;
76113;SDS011;64845;53.086;5.834;2023-07-29T08:24:39;6.80;;;2.20;;
76113;SDS011;64845;53.086;5.834;2023-07-29T08:27:05;7.57;;;1.63;;
76113;SDS011;64845;53.086;5.834;2023-07-29T08:29:30;6.82;;;1.92;;
76113;SDS011;64845;53.086;5.834;2023-07-29T08:31:56;7.55;;;2.20;;
76113;SDS011;64845;53.086;5.834;2023-07-29T08:34:21;7.95;;;1.90;;
76113;SDS011;64845;53.086;5.834;2023-07-29T08:36:47;6.93;;;2.00;;
76113;SDS011;64845;53.086;5.834;2023-07-29T08:39:12;6.78;;;2.08;;
76113;SDS011;64845;53.086;5.834;2023-07-29T08:41:41;11.05;;;2.28;;
76113;SDS011;64845;53.086;5.834;2023-07-29T08:44:35;10.55;;;2.17;;
76113;SDS011;64845;53.086;5.834;2023-07-29T08:47:05;5.68;;;2.00;;
76113;SDS011;64845;53.086;5.834;2023-07-29T08:49:30;10.68;;;2.30;;
76113;SDS011;64845;53.086;5.834;2023-07-29T08:51:57;9.68;;;2.05;;
76113;SDS011;64845;53.086;5.834;2023-07-29T08:54:22;6.07;;;1.80;;
76113;SDS011;64845;53.086;5.834;2023-07-29T08:56:48;6.38;;;1.83;;
76113;SDS011;64845;53.086;5.834;2023-07-29T08:59:14;5.35;;;2.08;;
76113;SDS011;64845;53.086;5.834;2023-07-29T09:01:42;6.43;;;2.00;;
76113;SDS011;64845;53.086;5.834;2023-07-29T09:04:08;6.90;;;2.20;;
76113;SDS011;64845;53.086;5.834;2023-07-29T09:06:34;6.45;;;2.05;;
76113;SDS011;64845;53.086;5.834;2023-07-29T09:09:01;5.63;;;1.77;;
76113;SDS011;64845;53.086;5.834;2023-07-29T09:11:27;7.15;;;1.83;;
76113;SDS011;64845;53.086;5.834;2023-07-29T09:13:53;6.32;;;1.70;;
76113;SDS011;64845;53.086;5.834;2023-07-29T09:16:20;7.93;;;2.35;;
76113;SDS011;64845;53.086;5.834;2023-07-29T09:18:50;8.63;;;1.88;;
76113;SDS011;64845;53.086;5.834;2023-07-29T09:21:25;6.80;;;2.08;;
76113;SDS011;64845;53.086;5.834;2023-07-29T09:23:52;7.78;;;2.10;;
76113;SDS011;64845;53.086;5.834;2023-07-29T09:26:24;6.80;;;1.90;;
76113;SDS011;64845;53.086;5.834;2023-07-29T09:28:57;7.80;;;2.10;;
76113;SDS011;64845;53.086;5.834;2023-07-29T09:31:25;7.38;;;1.48;;
76113;SDS011;64845;53.086;5.834;2023-07-29T09:33:58;5.82;;;1.70;;
76113;SDS011;64845;53.086;5.834;2023-07-29T09:36:25;5.68;;;2.00;;
76113;SDS011;64845;53.086;5.834;2023-07-29T09:38:55;5.82;;;1.80;;
76113;SDS011;64845;53.086;5.834;2023-07-29T09:41:24;5.93;;;2.00;;
76113;SDS011;64845;53.086;5.834;2023-07-29T09:43:55;5.85;;;2.10;;
76113;SDS011;64845;53.086;5.834;2023-07-29T09:46:25;9.10;;;1.77;;
76113;SDS011;64845;53.086;5.834;2023-07-29T09:48:56;6.25;;;1.70;;
76113;SDS011;64845;53.086;5.834;2023-07-29T09:51:21;8.68;;;1.80;;
76113;SDS011;64845;53.086;5.834;2023-07-29T09:53:47;5.10;;;1.90;;
76113;SDS011;64845;53.086;5.834;2023-07-29T09:56:15;6.28;;;2.03;;
76113;SDS011;64845;53.086;5.834;2023-07-29T09:58:42;6.13;;;1.50;;
76113;SDS011;64845;53.086;5.834;2023-07-29T10:01:10;5.80;;;1.80;;
76113;SDS011;64845;53.086;5.834;2023-07-29T10:03:36;4.63;;;1.40;;
76113;SDS011;64845;53.086;5.834;2023-07-29T10:06:02;5.45;;;1.60;;
76113;SDS011;64845;53.086;5.834;2023-07-29T10:08:30;5.95;;;1.40;;
76113;SDS011;64845;53.086;5.834;2023-07-29T10:11:05;3.42;;;1.50;;
76113;SDS011;64845;53.086;5.834;2023-07-29T10:13:35;6.30;;;1.65;;
76113;SDS011;64845;53.086;5.834;2023-07-29T10:16:01;2.92;;;1.20;;
76113;SDS011;64845;53.086;5.834;2023-07-29T10:18:27;3.88;;;1.45;;
76113;SDS011;64845;53.086;5.834;2023-07-29T10:20:54;3.85;;;1.35;;
76113;SDS011;64845;53.086;5.834;2023-07-29T10:23:22;5.13;;;1.27;;
76113;SDS011;64845;53.086;5.834;2023-07-29T10:25:50;6.05;;;1.40;;
76113;SDS011;64845;53.086;5.834;2023-07-29T10:28:23;2.63;;;1.40;;
76113;SDS011;64845;53.086;5.834;2023-07-29T10:30:51;3.60;;;1.33;;
76113;SDS011;64845;53.086;5.834;2023-07-29T10:33:17;3.28;;;1.45;;
76113;SDS011;64845;53.086;5.834;2023-07-29T10:35:42;3.85;;;1.42;;
76113;SDS011;64845;53.086;5.834;2023-07-29T10:38:08;4.82;;;1.48;;
76113;SDS011;64845;53.086;5.834;2023-07-29T10:40:43;5.05;;;1.73;;
76113;SDS011;64845;53.086;5.834;2023-07-29T10:43:18;3.72;;;1.60;;
76113;SDS011;64845;53.086;5.834;2023-07-29T10:45:48;4.03;;;1.90;;
76113;SDS011;64845;53.086;5.834;2023-07-29T10:48:39;6.50;;;1.88;;
76113;SDS011;64845;53.086;5.834;2023-07-29T10:53:59;8.20;;;2.20;;
76113;SDS011;64845;53.086;5.834;2023-07-29T10:56:35;6.35;;;1.92;;
76113;SDS011;64845;53.086;5.834;2023-07-29T10:59:22;8.40;;;2.10;;
76113;SDS011;64845;53.086;5.834;2023-07-29T11:01:57;10.30;;;2.28;;
76113;SDS011;64845;53.086;5.834;2023-07-29T11:04:28;2.88;;;1.60;;
76113;SDS011;64845;53.086;5.834;2023-07-29T11:15:00;7.50;;;2.60;;
76113;SDS011;64845;53.086;5.834;2023-07-29T11:17:32;10.68;;;2.00;;
76113;SDS011;64845;53.086;5.834;2023-07-29T11:20:02;9.07;;;2.13;;
76113;SDS011;64845;53.086;5.834;2023-07-29T11:22:29;9.38;;;2.70;;
76113;SDS011;64845;53.086;5.834;2023-07-29T11:24:55;7.07;;;2.63;;
76113;SDS011;64845;53.086;5.834;2023-07-29T11:27:20;8.23;;;2.55;;
76113;SDS011;64845;53.086;5.834;2023-07-29T11:29:46;8.27;;;2.67;;
76113;SDS011;64845;53.086;5.834;2023-07-29T11:32:12;8.32;;;2.85;;
76113;SDS011;64845;53.086;5.834;2023-07-29T11:34:37;10.43;;;3.08;;
76113;SDS011;64845;53.086;5.834;2023-07-29T11:37:05;7.10;;;2.95;;
76113;SDS011;64845;53.086;5.834;2023-07-29T11:39:31;5.65;;;2.67;;
76113;SDS011;64845;53.086;5.834;2023-07-29T11:41:57;5.40;;;2.45;;
76113;SDS011;64845;53.086;5.834;2023-07-29T11:44:23;4.60;;;2.33;;
76113;SDS011;64845;53.086;5.834;2023-07-29T11:46:50;5.88;;;2.13;;
76113;SDS011;64845;53.086;5.834;2023-07-29T11:49:15;8.77;;;2.15;;
76113;SDS011;64845;53.086;5.834;2023-07-29T11:51:41;4.95;;;1.92;;
76113;SDS011;64845;53.086;5.834;2023-07-29T11:54:07;5.40;;;1.88;;
76113;SDS011;64845;53.086;5.834;2023-07-29T11:56:33;5.45;;;1.80;;
76113;SDS011;64845;53.086;5.834;2023-07-29T11:58:59;6.35;;;2.00;;
76113;SDS011;64845;53.086;5.834;2023-07-29T12:01:26;7.95;;;2.08;;
76113;SDS011;64845;53.086;5.834;2023-07-29T12:03:52;8.40;;;1.90;;
76113;SDS011;64845;53.086;5.834;2023-07-29T12:06:18;9.18;;;1.90;;
76113;SDS011;64845;53.086;5.834;2023-07-29T12:08:44;7.80;;;1.67;;
76113;SDS011;64845;53.086;5.834;2023-07-29T12:11:09;7.10;;;1.95;;
76113;SDS011;64845;53.086;5.834;2023-07-29T12:13:38;7.18;;;1.77;;
76113;SDS011;64845;53.086;5.834;2023-07-29T12:16:03;8.32;;;2.13;;
76113;SDS011;64845;53.086;5.834;2023-07-29T12:18:30;7.72;;;2.30;;
76113;SDS011;64845;53.086;5.834;2023-07-29T12:20:59;5.80;;;2.03;;
76113;SDS011;64845;53.086;5.834;2023-07-29T12:23:25;7.88;;;1.80;;
76113;SDS011;64845;53.086;5.834;2023-07-29T12:26:00;5.68;;;1.80;;
76113;SDS011;64845;53.086;5.834;2023-07-29T12:28:26;5.57;;;2.10;;
76113;SDS011;64845;53.086;5.834;2023-07-29T12:30:54;9.70;;;1.80;;
76113;SDS011;64845;53.086;5.834;2023-07-29T12:33:30;4.82;;;1.52;;
76113;SDS011;64845;53.086;5.834;2023-07-29T12:35:56;5.50;;;1.73;;
76113;SDS011;64845;53.086;5.834;2023-07-29T12:38:21;7.18;;;2.30;;
76113;SDS011;64845;53.086;5.834;2023-07-29T12:40:47;5.90;;;2.15;;
76113;SDS011;64845;53.086;5.834;2023-07-29T12:43:12;7.75;;;2.03;;
76113;SDS011;64845;53.086;5.834;2023-07-29T12:45:37;8.13;;;2.13;;
76113;SDS011;64845;53.086;5.834;2023-07-29T12:48:05;7.43;;;2.13;;
76113;SDS011;64845;53.086;5.834;2023-07-29T12:50:30;5.55;;;1.88;;
76113;SDS011;64845;53.086;5.834;2023-07-29T12:52:56;7.82;;;2.33;;
76113;SDS011;64845;53.086;5.834;2023-07-29T12:55:22;10.65;;;2.70;;
76113;SDS011;64845;53.086;5.834;2023-07-29T12:57:47;10.32;;;2.25;;
76113;SDS011;64845;53.086;5.834;2023-07-29T13:00:13;8.23;;;2.17;;
76113;SDS011;64845;53.086;5.834;2023-07-29T13:02:38;5.30;;;2.00;;
76113;SDS011;64845;53.086;5.834;2023-07-29T13:05:04;10.43;;;2.50;;
76113;SDS011;64845;53.086;5.834;2023-07-29T13:07:31;9.32;;;2.15;;
76113;SDS011;64845;53.086;5.834;2023-07-29T13:09:56;6.32;;;2.00;;
76113;SDS011;64845;53.086;5.834;2023-07-29T13:12:21;2.90;;;1.67;;
76113;SDS011;64845;53.086;5.834;2023-07-29T13:14:47;8.10;;;2.20;;
76113;SDS011;64845;53.086;5.834;2023-07-29T13:17:12;5.43;;;1.70;;
76113;SDS011;64845;53.086;5.834;2023-07-29T13:19:38;6.15;;;2.25;;
76113;SDS011;64845;53.086;5.834;2023-07-29T13:22:03;12.80;;;2.33;;
76113;SDS011;64845;53.086;5.834;2023-07-29T13:24:29;10.70;;;2.08;;
76113;SDS011;64845;53.086;5.834;2023-07-29T13:26:57;4.60;;;1.77;;
76113;SDS011;64845;53.086;5.834;2023-07-29T13:29:23;7.05;;;2.67;;
76113;SDS011;64845;53.086;5.834;2023-07-29T13:31:48;6.43;;;1.83;;
76113;SDS011;64845;53.086;5.834;2023-07-29T13:34:13;5.90;;;2.13;;
76113;SDS011;64845;53.086;5.834;2023-07-29T13:36:39;8.02;;;2.30;;
76113;SDS011;64845;53.086;5.834;2023-07-29T13:39:04;6.03;;;2.10;;
76113;SDS011;64845;53.086;5.834;2023-07-29T13:41:30;8.13;;;2.03;;
76113;SDS011;64845;53.086;5.834;2023-07-29T13:43:55;8.48;;;2.22;;
76113;SDS011;64845;53.086;5.834;2023-07-29T13:46:20;5.43;;;2.13;;
76113;SDS011;64845;53.086;5.834;2023-07-29T13:48:46;7.32;;;2.15;;
76113;SDS011;64845;53.086;5.834;2023-07-29T13:51:12;6.00;;;2.28;;
76113;SDS011;64845;53.086;5.834;2023-07-29T13:53:37;6.32;;;2.13;;
76113;SDS011;64845;53.086;5.834;2023-07-29T13:56:03;4.88;;;2.15;;
76113;SDS011;64845;53.086;5.834;2023-07-29T13:58:29;3.40;;;1.88;;
76113;SDS011;64845;53.086;5.834;2023-07-29T14:00:55;4.35;;;1.95;;
76113;SDS011;64845;53.086;5.834;2023-07-29T14:03:20;7.90;;;1.88;;
76113;SDS011;64845;53.086;5.834;2023-07-29T14:05:48;3.95;;;1.58;;
76113;SDS011;64845;53.086;5.834;2023-07-29T14:08:14;6.45;;;1.75;;
76113;SDS011;64845;53.086;5.834;2023-07-29T14:10:39;4.03;;;1.40;;
76113;SDS011;64845;53.086;5.834;2023-07-29T14:13:05;2.80;;;1.40;;
76113;SDS011;64845;53.086;5.834;2023-07-29T14:15:30;6.15;;;1.60;;
76113;SDS011;64845;53.086;5.834;2023-07-29T14:17:57;4.10;;;1.58;;
76113;SDS011;64845;53.086;5.834;2023-07-29T14:20:23;7.90;;;1.80;;
76113;SDS011;64845;53.086;5.834;2023-07-29T14:22:48;5.05;;;1.60;;
76113;SDS011;64845;53.086;5.834;2023-07-29T14:25:14;6.68;;;1.58;;
76113;SDS011;64845;53.086;5.834;2023-07-29T14:27:40;5.40;;;1.38;;
76113;SDS011;64845;53.086;5.834;2023-07-29T14:30:06;5.20;;;1.65;;
76113;SDS011;64845;53.086;5.834;2023-07-29T14:32:32;9.00;;;1.77;;
76113;SDS011;64845;53.086;5.834;2023-07-29T14:34:57;7.05;;;1.67;;
76113;SDS011;64845;53.086;5.834;2023-07-29T14:37:23;6.53;;;1.60;;
76113;SDS011;64845;53.086;5.834;2023-07-29T14:39:48;6.32;;;1.70;;
76113;SDS011;64845;53.086;5.834;2023-07-29T14:42:13;7.72;;;1.70;;
76113;SDS011;64845;53.086;5.834;2023-07-29T14:44:40;5.82;;;1.75;;
76113;SDS011;64845;53.086;5.834;2023-07-29T14:47:07;6.38;;;1.77;;
76113;SDS011;64845;53.086;5.834;2023-07-29T14:49:33;4.68;;;2.15;;
76113;SDS011;64845;53.086;5.834;2023-07-29T14:51:58;4.93;;;1.60;;
76113;SDS011;64845;53.086;5.834;2023-07-29T14:54:24;4.50;;;1.73;;
76113;SDS011;64845;53.086;5.834;2023-07-29T14:56:49;4.15;;;1.50;;